sensor_id;sensor_type;location;lat;lon;timestamp;temperature;humidity
17092;DHT22;8661;45.700;4.880;2022-09-09T00:00:13;19.10;99.90
17092;DHT22;8661;45.700;4.880;2022-09-09T00:02:44;19.10;99.90
17092;DHT22;8661;45.700;4.880;2022-09-09T00:05:21;19.10;99.90
17092;DHT22;8661;45.700;4.880;2022-09-09T00:07:53;19.00;99.90
17092;DHT22;8661;45.700;4.880;2022-09-09T00:10:25;19.00;99.90
17092;DHT22;8661;45.700;4.880;2022-09-09T00:12:57;18.90;99.90
17092;DHT22;8661;45.700;4.880;2022-09-09T00:15:34;18.90;99.90
17092;DHT22;8661;45.700;4.880;2022-09-09T00:18:11;18.90;99.90
17092;DHT22;8661;45.700;4.880;2022-09-09T00:20:47;18.80;99.90
17092;DHT22;8661;45.700;4.880;2022-09-09T00:23:24;18.80;99.90
17092;DHT22;8661;45.700;4.880;2022-09-09T00:25:58;18.80;99.90
17092;DHT22;8661;45.700;4.880;2022-09-09T00:28:27;18.80;99.90
17092;DHT22;8661;45.700;4.880;2022-09-09T00:31:11;18.80;99.90
17092;DHT22;8661;45.700;4.880;2022-09-09T00:33:42;18.70;99.90
17092;DHT22;8661;45.700;4.880;2022-09-09T00:36:13;18.60;99.90
17092;DHT22;8661;45.700;4.880;2022-09-09T00:38:45;18.50;99.90
17092;DHT22;8661;45.700;4.880;2022-09-09T00:41:19;18.50;99.90
17092;DHT22;8661;45.700;4.880;2022-09-09T00:43:56;18.40;99.90
17092;DHT22;8661;45.700;4.880;2022-09-09T00:46:41;18.40;99.90
17092;DHT22;8661;45.700;4.880;2022-09-09T00:49:23;18.30;99.90
17092;DHT22;8661;45.700;4.880;2022-09-09T00:52:02;18.30;99.90
17092;DHT22;8661;45.700;4.880;2022-09-09T00:54:37;18.30;99.90
17092;DHT22;8661;45.700;4.880;2022-09-09T00:57:25;18.30;99.90
17092;DHT22;8661;45.700;4.880;2022-09-09T00:59:59;18.30;99.90
17092;DHT22;8661;45.700;4.880;2022-09-09T01:02:37;18.40;99.90
17092;DHT22;8661;45.700;4.880;2022-09-09T01:05:12;18.40;99.90
17092;DHT22;8661;45.700;4.880;2022-09-09T01:07:44;18.50;99.90
17092;DHT22;8661;45.700;4.880;2022-09-09T01:10:21;18.50;99.90
17092;DHT22;8661;45.700;4.880;2022-09-09T01:12:55;18.60;99.90
17092;DHT22;8661;45.700;4.880;2022-09-09T01:15:28;18.60;99.90
17092;DHT22;8661;45.700;4.880;2022-09-09T01:18:00;18.50;99.90
17092;DHT22;8661;45.700;4.880;2022-09-09T01:20:31;18.50;99.90
17092;DHT22;8661;45.700;4.880;2022-09-09T01:23:16;18.40;99.90
17092;DHT22;8661;45.700;4.880;2022-09-09T01:26:13;18.30;99.90
17092;DHT22;8661;45.700;4.880;2022-09-09T01:28:43;18.30;99.90
17092;DHT22;8661;45.700;4.880;2022-09-09T01:31:14;18.20;99.90
17092;DHT22;8661;45.700;4.880;2022-09-09T01:33:42;18.20;99.90
17092;DHT22;8661;45.700;4.880;2022-09-09T01:36:11;18.10;99.90
17092;DHT22;8661;45.700;4.880;2022-09-09T01:38:39;18.10;99.90
17092;DHT22;8661;45.700;4.880;2022-09-09T01:41:08;18.00;99.90
17092;DHT22;8661;45.700;4.880;2022-09-09T01:43:34;17.90;99.90
17092;DHT22;8661;45.700;4.880;2022-09-09T01:46:02;17.80;99.90
17092;DHT22;8661;45.700;4.880;2022-09-09T01:48:29;17.80;99.90
17092;DHT22;8661;45.700;4.880;2022-09-09T01:50:57;17.70;99.90
17092;DHT22;8661;45.700;4.880;2022-09-09T01:53:23;17.70;99.90
17092;DHT22;8661;45.700;4.880;2022-09-09T01:56:00;17.60;99.90
17092;DHT22;8661;45.700;4.880;2022-09-09T01:58:41;17.60;99.90
17092;DHT22;8661;45.700;4.880;2022-09-09T02:01:19;17.50;99.90
17092;DHT22;8661;45.700;4.880;2022-09-09T02:03:52;17.40;99.90
17092;DHT22;8661;45.700;4.880;2022-09-09T02:06:33;17.40;99.90
17092;DHT22;8661;45.700;4.880;2022-09-09T02:09:11;17.40;99.90
17092;DHT22;8661;45.700;4.880;2022-09-09T02:11:40;17.40;99.90
17092;DHT22;8661;45.700;4.880;2022-09-09T02:14:14;17.30;99.90
17092;DHT22;8661;45.700;4.880;2022-09-09T02:16:46;17.20;99.90
17092;DHT22;8661;45.700;4.880;2022-09-09T02:19:18;17.20;99.90
17092;DHT22;8661;45.700;4.880;2022-09-09T02:21:49;17.10;99.90
17092;DHT22;8661;45.700;4.880;2022-09-09T02:24:17;17.10;99.90
17092;DHT22;8661;45.700;4.880;2022-09-09T02:26:46;17.10;99.90
17092;DHT22;8661;45.700;4.880;2022-09-09T02:29:18;17.10;99.90
17092;DHT22;8661;45.700;4.880;2022-09-09T02:31:47;17.10;99.90
17092;DHT22;8661;45.700;4.880;2022-09-09T02:34:18;17.00;99.90
17092;DHT22;8661;45.700;4.880;2022-09-09T02:36:46;17.00;99.90
17092;DHT22;8661;45.700;4.880;2022-09-09T02:39:14;16.90;99.90
17092;DHT22;8661;45.700;4.880;2022-09-09T02:41:41;16.90;99.90
17092;DHT22;8661;45.700;4.880;2022-09-09T02:44:11;16.90;99.90
17092;DHT22;8661;45.700;4.880;2022-09-09T02:47:00;16.90;99.90
17092;DHT22;8661;45.700;4.880;2022-09-09T02:49:37;16.90;99.90
17092;DHT22;8661;45.700;4.880;2022-09-09T02:52:08;16.80;99.90
17092;DHT22;8661;45.700;4.880;2022-09-09T02:54:39;16.80;99.90
17092;DHT22;8661;45.700;4.880;2022-09-09T02:57:09;16.80;99.90
17092;DHT22;8661;45.700;4.880;2022-09-09T02:59:37;16.80;99.90
17092;DHT22;8661;45.700;4.880;2022-09-09T03:02:05;16.70;99.90
17092;DHT22;8661;45.700;4.880;2022-09-09T03:04:32;16.80;99.90
17092;DHT22;8661;45.700;4.880;2022-09-09T03:06:59;16.80;99.90
17092;DHT22;8661;45.700;4.880;2022-09-09T03:09:27;16.90;99.90
17092;DHT22;8661;45.700;4.880;2022-09-09T03:11:53;16.90;99.90
17092;DHT22;8661;45.700;4.880;2022-09-09T03:14:21;16.90;99.90
17092;DHT22;8661;45.700;4.880;2022-09-09T03:16:51;16.90;99.90
17092;DHT22;8661;45.700;4.880;2022-09-09T03:19:20;16.80;99.90
17092;DHT22;8661;45.700;4.880;2022-09-09T03:21:47;16.80;99.90
17092;DHT22;8661;45.700;4.880;2022-09-09T03:24:15;16.80;99.90
17092;DHT22;8661;45.700;4.880;2022-09-09T03:26:42;16.80;99.90
17092;DHT22;8661;45.700;4.880;2022-09-09T03:29:10;16.70;99.90
17092;DHT22;8661;45.700;4.880;2022-09-09T03:31:39;16.70;99.90
17092;DHT22;8661;45.700;4.880;2022-09-09T03:34:05;16.60;99.90
17092;DHT22;8661;45.700;4.880;2022-09-09T03:36:34;16.50;99.90
17092;DHT22;8661;45.700;4.880;2022-09-09T03:39:02;16.50;99.90
17092;DHT22;8661;45.700;4.880;2022-09-09T03:41:29;16.50;99.90
17092;DHT22;8661;45.700;4.880;2022-09-09T03:43:56;16.50;99.90
17092;DHT22;8661;45.700;4.880;2022-09-09T03:46:25;16.50;99.90
17092;DHT22;8661;45.700;4.880;2022-09-09T03:48:52;16.50;99.90
17092;DHT22;8661;45.700;4.880;2022-09-09T03:51:19;16.50;99.90
17092;DHT22;8661;45.700;4.880;2022-09-09T03:53:48;16.50;99.90
17092;DHT22;8661;45.700;4.880;2022-09-09T03:56:15;16.50;99.90
17092;DHT22;8661;45.700;4.880;2022-09-09T03:58:42;16.50;99.90
17092;DHT22;8661;45.700;4.880;2022-09-09T04:01:11;16.60;99.90
17092;DHT22;8661;45.700;4.880;2022-09-09T04:03:39;16.60;99.90
17092;DHT22;8661;45.700;4.880;2022-09-09T04:06:08;16.60;99.90
17092;DHT22;8661;45.700;4.880;2022-09-09T04:08:35;16.60;99.90
17092;DHT22;8661;45.700;4.880;2022-09-09T04:11:05;16.60;99.90
17092;DHT22;8661;45.700;4.880;2022-09-09T04:13:33;16.70;99.90
17092;DHT22;8661;45.700;4.880;2022-09-09T04:16:02;16.70;99.90
17092;DHT22;8661;45.700;4.880;2022-09-09T04:18:30;16.80;99.90
17092;DHT22;8661;45.700;4.880;2022-09-09T04:20:57;16.80;99.90
17092;DHT22;8661;45.700;4.880;2022-09-09T04:23:25;16.80;99.90
17092;DHT22;8661;45.700;4.880;2022-09-09T04:25:54;16.80;99.90
17092;DHT22;8661;45.700;4.880;2022-09-09T04:28:25;16.80;99.90
17092;DHT22;8661;45.700;4.880;2022-09-09T04:30:53;16.80;99.90
17092;DHT22;8661;45.700;4.880;2022-09-09T04:33:20;16.80;99.90
17092;DHT22;8661;45.700;4.880;2022-09-09T04:35:48;16.80;99.90
17092;DHT22;8661;45.700;4.880;2022-09-09T04:38:16;16.70;99.90
17092;DHT22;8661;45.700;4.880;2022-09-09T04:40:44;16.70;99.90
17092;DHT22;8661;45.700;4.880;2022-09-09T04:43:13;16.60;99.90
17092;DHT22;8661;45.700;4.880;2022-09-09T04:45:42;16.70;99.90
17092;DHT22;8661;45.700;4.880;2022-09-09T04:48:10;16.60;99.90
17092;DHT22;8661;45.700;4.880;2022-09-09T04:50:36;16.50;99.90
17092;DHT22;8661;45.700;4.880;2022-09-09T04:53:04;16.40;99.90
17092;DHT22;8661;45.700;4.880;2022-09-09T04:55:31;16.40;99.90
17092;DHT22;8661;45.700;4.880;2022-09-09T04:58:03;16.30;99.90
17092;DHT22;8661;45.700;4.880;2022-09-09T05:00:30;16.30;99.90
17092;DHT22;8661;45.700;4.880;2022-09-09T05:03:02;16.30;99.90
17092;DHT22;8661;45.700;4.880;2022-09-09T05:05:30;16.20;99.90
17092;DHT22;8661;45.700;4.880;2022-09-09T05:08:01;16.20;99.90
17092;DHT22;8661;45.700;4.880;2022-09-09T05:10:28;16.20;99.90
17092;DHT22;8661;45.700;4.880;2022-09-09T05:12:55;16.10;99.90
17092;DHT22;8661;45.700;4.880;2022-09-09T05:15:22;16.10;99.90
17092;DHT22;8661;45.700;4.880;2022-09-09T05:17:50;16.00;99.90
17092;DHT22;8661;45.700;4.880;2022-09-09T05:20:20;16.00;99.90
17092;DHT22;8661;45.700;4.880;2022-09-09T05:22:47;15.90;99.90
17092;DHT22;8661;45.700;4.880;2022-09-09T05:25:14;15.90;99.90
17092;DHT22;8661;45.700;4.880;2022-09-09T05:27:41;15.80;99.90
17092;DHT22;8661;45.700;4.880;2022-09-09T05:30:09;15.90;99.90
17092;DHT22;8661;45.700;4.880;2022-09-09T05:32:36;15.90;99.90
17092;DHT22;8661;45.700;4.880;2022-09-09T05:35:04;15.90;99.90
17092;DHT22;8661;45.700;4.880;2022-09-09T05:37:32;16.00;99.90
17092;DHT22;8661;45.700;4.880;2022-09-09T05:43:00;16.00;99.90
17092;DHT22;8661;45.700;4.880;2022-09-09T05:45:27;16.40;99.90
17092;DHT22;8661;45.700;4.880;2022-09-09T05:47:54;17.00;99.90
17092;DHT22;8661;45.700;4.880;2022-09-09T05:50:21;17.70;99.90
17092;DHT22;8661;45.700;4.880;2022-09-09T05:52:50;18.60;99.90
17092;DHT22;8661;45.700;4.880;2022-09-09T05:55:16;19.10;99.90
17092;DHT22;8661;45.700;4.880;2022-09-09T05:57:48;20.20;99.90
17092;DHT22;8661;45.700;4.880;2022-09-09T06:00:17;21.30;99.90
17092;DHT22;8661;45.700;4.880;2022-09-09T06:02:50;21.70;99.90
17092;DHT22;8661;45.700;4.880;2022-09-09T06:05:17;22.20;99.90
17092;DHT22;8661;45.700;4.880;2022-09-09T06:07:44;23.10;99.90
17092;DHT22;8661;45.700;4.880;2022-09-09T06:10:15;23.60;97.80
17092;DHT22;8661;45.700;4.880;2022-09-09T06:12:42;24.10;95.50
17092;DHT22;8661;45.700;4.880;2022-09-09T06:15:10;24.60;93.40
17092;DHT22;8661;45.700;4.880;2022-09-09T06:17:37;24.90;92.20
17092;DHT22;8661;45.700;4.880;2022-09-09T06:20:06;25.10;91.20
17092;DHT22;8661;45.700;4.880;2022-09-09T06:22:34;25.30;90.30
17092;DHT22;8661;45.700;4.880;2022-09-09T06:25:02;25.00;90.50
17092;DHT22;8661;45.700;4.880;2022-09-09T06:27:30;24.60;90.90
17092;DHT22;8661;45.700;4.880;2022-09-09T06:29:58;24.20;91.50
17092;DHT22;8661;45.700;4.880;2022-09-09T06:32:25;24.40;91.90
17092;DHT22;8661;45.700;4.880;2022-09-09T06:34:52;24.80;91.90
17092;DHT22;8661;45.700;4.880;2022-09-09T06:37:20;24.70;91.30
17092;DHT22;8661;45.700;4.880;2022-09-09T06:39:49;24.70;90.90
17092;DHT22;8661;45.700;4.880;2022-09-09T06:42:16;24.50;91.00
17092;DHT22;8661;45.700;4.880;2022-09-09T06:44:46;24.60;91.30
17092;DHT22;8661;45.700;4.880;2022-09-09T06:47:13;24.40;91.50
17092;DHT22;8661;45.700;4.880;2022-09-09T06:49:41;24.10;92.10
17092;DHT22;8661;45.700;4.880;2022-09-09T06:52:08;24.20;92.00
17092;DHT22;8661;45.700;4.880;2022-09-09T06:54:35;24.40;91.70
17092;DHT22;8661;45.700;4.880;2022-09-09T06:57:03;24.60;91.20
17092;DHT22;8661;45.700;4.880;2022-09-09T06:59:32;24.50;91.30
17092;DHT22;8661;45.700;4.880;2022-09-09T07:02:00;24.60;90.60
17092;DHT22;8661;45.700;4.880;2022-09-09T07:04:27;24.40;90.50
17092;DHT22;8661;45.700;4.880;2022-09-09T07:06:54;24.40;90.10
17092;DHT22;8661;45.700;4.880;2022-09-09T07:09:21;24.40;90.10
17092;DHT22;8661;45.700;4.880;2022-09-09T07:11:50;24.30;89.60
17092;DHT22;8661;45.700;4.880;2022-09-09T07:14:18;24.50;89.00
17092;DHT22;8661;45.700;4.880;2022-09-09T07:16:45;24.60;89.00
17092;DHT22;8661;45.700;4.880;2022-09-09T07:19:14;24.70;88.10
17092;DHT22;8661;45.700;4.880;2022-09-09T07:21:41;24.60;89.00
17092;DHT22;8661;45.700;4.880;2022-09-09T07:24:09;24.50;89.90
17092;DHT22;8661;45.700;4.880;2022-09-09T07:26:38;24.40;90.70
17092;DHT22;8661;45.700;4.880;2022-09-09T07:29:05;24.70;90.00
17092;DHT22;8661;45.700;4.880;2022-09-09T07:31:34;24.70;89.40
17092;DHT22;8661;45.700;4.880;2022-09-09T07:34:02;24.70;90.00
17092;DHT22;8661;45.700;4.880;2022-09-09T07:36:32;24.80;89.80
17092;DHT22;8661;45.700;4.880;2022-09-09T07:39:01;25.00;88.10
17092;DHT22;8661;45.700;4.880;2022-09-09T07:41:30;25.10;87.60
17092;DHT22;8661;45.700;4.880;2022-09-09T07:44:03;25.50;86.20
17092;DHT22;8661;45.700;4.880;2022-09-09T07:46:30;25.80;84.40
17092;DHT22;8661;45.700;4.880;2022-09-09T07:48:57;26.10;83.30
17092;DHT22;8661;45.700;4.880;2022-09-09T07:51:26;26.50;81.60
17092;DHT22;8661;45.700;4.880;2022-09-09T07:53:56;27.30;79.30
17092;DHT22;8661;45.700;4.880;2022-09-09T07:56:25;27.80;77.60
17092;DHT22;8661;45.700;4.880;2022-09-09T07:58:53;28.30;76.00
17092;DHT22;8661;45.700;4.880;2022-09-09T08:01:23;28.40;74.80
17092;DHT22;8661;45.700;4.880;2022-09-09T08:03:53;28.70;74.00
17092;DHT22;8661;45.700;4.880;2022-09-09T08:06:21;29.30;72.20
17092;DHT22;8661;45.700;4.880;2022-09-09T08:08:50;29.80;70.70
17092;DHT22;8661;45.700;4.880;2022-09-09T08:11:19;30.00;69.20
17092;DHT22;8661;45.700;4.880;2022-09-09T08:13:46;30.30;67.70
17092;DHT22;8661;45.700;4.880;2022-09-09T08:16:15;30.70;67.00
17092;DHT22;8661;45.700;4.880;2022-09-09T08:18:42;31.20;65.20
17092;DHT22;8661;45.700;4.880;2022-09-09T08:21:11;31.60;64.60
17092;DHT22;8661;45.700;4.880;2022-09-09T08:23:40;31.40;63.90
17092;DHT22;8661;45.700;4.880;2022-09-09T08:26:10;32.20;63.30
17092;DHT22;8661;45.700;4.880;2022-09-09T08:28:40;32.30;59.90
17092;DHT22;8661;45.700;4.880;2022-09-09T08:31:09;32.30;61.20
17092;DHT22;8661;45.700;4.880;2022-09-09T08:33:36;31.90;61.60
17092;DHT22;8661;45.700;4.880;2022-09-09T08:36:05;31.50;62.30
17092;DHT22;8661;45.700;4.880;2022-09-09T08:38:33;31.20;61.70
17092;DHT22;8661;45.700;4.880;2022-09-09T08:41:12;30.60;63.20
17092;DHT22;8661;45.700;4.880;2022-09-09T08:43:46;30.50;64.00
17092;DHT22;8661;45.700;4.880;2022-09-09T08:46:18;30.60;64.80
17092;DHT22;8661;45.700;4.880;2022-09-09T08:48:52;30.90;64.60
17092;DHT22;8661;45.700;4.880;2022-09-09T08:51:24;31.10;63.60
17092;DHT22;8661;45.700;4.880;2022-09-09T08:53:52;31.10;62.80
17092;DHT22;8661;45.700;4.880;2022-09-09T08:56:22;31.30;64.10
17092;DHT22;8661;45.700;4.880;2022-09-09T08:58:53;31.00;64.00
17092;DHT22;8661;45.700;4.880;2022-09-09T09:01:39;31.00;63.30
17092;DHT22;8661;45.700;4.880;2022-09-09T09:04:17;31.30;59.10
17092;DHT22;8661;45.700;4.880;2022-09-09T09:06:52;30.90;60.40
17092;DHT22;8661;45.700;4.880;2022-09-09T09:09:23;30.40;61.50
17092;DHT22;8661;45.700;4.880;2022-09-09T09:11:55;29.90;61.90
17092;DHT22;8661;45.700;4.880;2022-09-09T09:14:29;29.90;63.10
17092;DHT22;8661;45.700;4.880;2022-09-09T09:17:01;30.40;62.60
17092;DHT22;8661;45.700;4.880;2022-09-09T09:19:31;31.10;60.90
17092;DHT22;8661;45.700;4.880;2022-09-09T09:22:04;31.30;59.40
17092;DHT22;8661;45.700;4.880;2022-09-09T09:24:42;31.70;60.30
17092;DHT22;8661;45.700;4.880;2022-09-09T09:27:14;32.30;61.10
17092;DHT22;8661;45.700;4.880;2022-09-09T09:29:43;32.00;58.30
17092;DHT22;8661;45.700;4.880;2022-09-09T09:32:15;31.10;58.50
17092;DHT22;8661;45.700;4.880;2022-09-09T09:34:49;29.90;59.80
17092;DHT22;8661;45.700;4.880;2022-09-09T09:37:20;29.30;61.70
17092;DHT22;8661;45.700;4.880;2022-09-09T09:39:50;29.90;62.30
17092;DHT22;8661;45.700;4.880;2022-09-09T09:42:18;29.40;61.70
17092;DHT22;8661;45.700;4.880;2022-09-09T09:44:46;28.80;62.00
17092;DHT22;8661;45.700;4.880;2022-09-09T09:47:15;28.20;61.40
17092;DHT22;8661;45.700;4.880;2022-09-09T09:49:51;27.40;61.10
17092;DHT22;8661;45.700;4.880;2022-09-09T09:52:23;28.10;62.60
17092;DHT22;8661;45.700;4.880;2022-09-09T09:54:50;28.70;61.60
17092;DHT22;8661;45.700;4.880;2022-09-09T09:57:23;28.60;60.50
17092;DHT22;8661;45.700;4.880;2022-09-09T10:00:04;28.20;60.80
17092;DHT22;8661;45.700;4.880;2022-09-09T10:02:40;28.60;61.30
17092;DHT22;8661;45.700;4.880;2022-09-09T10:05:13;29.30;59.70
17092;DHT22;8661;45.700;4.880;2022-09-09T10:07:41;28.80;58.90
17092;DHT22;8661;45.700;4.880;2022-09-09T10:10:15;28.20;59.20
17092;DHT22;8661;45.700;4.880;2022-09-09T10:12:55;29.20;58.50
17092;DHT22;8661;45.700;4.880;2022-09-09T10:15:32;30.50;58.80
17092;DHT22;8661;45.700;4.880;2022-09-09T10:18:14;31.70;57.70
17092;DHT22;8661;45.700;4.880;2022-09-09T10:20:50;32.40;55.30
17092;DHT22;8661;45.700;4.880;2022-09-09T10:23:32;32.10;55.80
17092;DHT22;8661;45.700;4.880;2022-09-09T10:26:12;32.50;55.40
17092;DHT22;8661;45.700;4.880;2022-09-09T10:28:58;33.20;53.70
17092;DHT22;8661;45.700;4.880;2022-09-09T10:31:37;33.20;53.00
17092;DHT22;8661;45.700;4.880;2022-09-09T10:34:16;33.50;53.00
17092;DHT22;8661;45.700;4.880;2022-09-09T10:36:47;33.80;51.30
17092;DHT22;8661;45.700;4.880;2022-09-09T10:39:28;34.00;52.30
17092;DHT22;8661;45.700;4.880;2022-09-09T10:42:03;34.50;51.10
17092;DHT22;8661;45.700;4.880;2022-09-09T10:44:43;34.40;50.70
17092;DHT22;8661;45.700;4.880;2022-09-09T10:50:18;35.00;53.20
17092;DHT22;8661;45.700;4.880;2022-09-09T10:52:57;34.80;50.50
17092;DHT22;8661;45.700;4.880;2022-09-09T10:55:28;34.80;50.80
17092;DHT22;8661;45.700;4.880;2022-09-09T10:58:03;35.10;49.50
17092;DHT22;8661;45.700;4.880;2022-09-09T11:00:38;35.20;49.60
17092;DHT22;8661;45.700;4.880;2022-09-09T11:03:15;35.50;49.50
17092;DHT22;8661;45.700;4.880;2022-09-09T11:05:48;36.00;48.60
17092;DHT22;8661;45.700;4.880;2022-09-09T11:08:18;34.80;50.20
17092;DHT22;8661;45.700;4.880;2022-09-09T11:10:52;33.90;51.00
17092;DHT22;8661;45.700;4.880;2022-09-09T11:13:24;32.90;50.60
17092;DHT22;8661;45.700;4.880;2022-09-09T11:15:56;32.20;52.10
17092;DHT22;8661;45.700;4.880;2022-09-09T11:18:29;31.30;53.80
17092;DHT22;8661;45.700;4.880;2022-09-09T11:21:00;30.70;54.80
17092;DHT22;8661;45.700;4.880;2022-09-09T11:23:36;30.40;55.80
17092;DHT22;8661;45.700;4.880;2022-09-09T11:26:06;30.10;57.10
17092;DHT22;8661;45.700;4.880;2022-09-09T11:28:46;29.80;56.20
17092;DHT22;8661;45.700;4.880;2022-09-09T11:31:33;29.70;55.10
17092;DHT22;8661;45.700;4.880;2022-09-09T11:34:23;29.70;57.30
17092;DHT22;8661;45.700;4.880;2022-09-09T11:37:08;29.80;56.80
17092;DHT22;8661;45.700;4.880;2022-09-09T11:39:49;29.80;56.80
17092;DHT22;8661;45.700;4.880;2022-09-09T11:42:20;29.50;55.40
17092;DHT22;8661;45.700;4.880;2022-09-09T11:44:49;29.60;56.00
17092;DHT22;8661;45.700;4.880;2022-09-09T11:47:21;30.10;55.50
17092;DHT22;8661;45.700;4.880;2022-09-09T11:49:51;31.00;54.30
17092;DHT22;8661;45.700;4.880;2022-09-09T11:52:24;31.90;53.70
17092;DHT22;8661;45.700;4.880;2022-09-09T11:54:54;32.70;51.70
17092;DHT22;8661;45.700;4.880;2022-09-09T11:57:32;33.50;51.10
17092;DHT22;8661;45.700;4.880;2022-09-09T12:00:01;33.80;49.30
17092;DHT22;8661;45.700;4.880;2022-09-09T12:02:29;33.50;49.60
17092;DHT22;8661;45.700;4.880;2022-09-09T12:05:02;33.50;50.50
17092;DHT22;8661;45.700;4.880;2022-09-09T12:07:35;33.80;50.50
17092;DHT22;8661;45.700;4.880;2022-09-09T12:10:18;33.90;50.80
17092;DHT22;8661;45.700;4.880;2022-09-09T12:12:47;33.90;51.10
17092;DHT22;8661;45.700;4.880;2022-09-09T12:15:23;33.40;51.40
17092;DHT22;8661;45.700;4.880;2022-09-09T12:17:54;33.90;50.00
17092;DHT22;8661;45.700;4.880;2022-09-09T12:20:30;34.00;49.80
17092;DHT22;8661;45.700;4.880;2022-09-09T12:23:19;34.20;51.50
17092;DHT22;8661;45.700;4.880;2022-09-09T12:29:04;35.30;48.60
17092;DHT22;8661;45.700;4.880;2022-09-09T12:31:39;34.90;48.60
17092;DHT22;8661;45.700;4.880;2022-09-09T12:34:11;34.60;48.30
17092;DHT22;8661;45.700;4.880;2022-09-09T12:36:41;34.00;48.40
17092;DHT22;8661;45.700;4.880;2022-09-09T12:39:18;33.20;49.60
17092;DHT22;8661;45.700;4.880;2022-09-09T12:41:53;32.60;50.50
17092;DHT22;8661;45.700;4.880;2022-09-09T12:44:23;31.80;50.40
17092;DHT22;8661;45.700;4.880;2022-09-09T12:46:51;31.90;52.00
17092;DHT22;8661;45.700;4.880;2022-09-09T12:49:32;32.90;50.20
17092;DHT22;8661;45.700;4.880;2022-09-09T12:52:03;33.60;49.10
17092;DHT22;8661;45.700;4.880;2022-09-09T12:54:33;34.20;48.20
17092;DHT22;8661;45.700;4.880;2022-09-09T12:57:01;34.40;50.00
17092;DHT22;8661;45.700;4.880;2022-09-09T12:59:36;34.90;49.10
17092;DHT22;8661;45.700;4.880;2022-09-09T13:02:19;34.90;47.80
17092;DHT22;8661;45.700;4.880;2022-09-09T13:04:47;33.90;51.50
17092;DHT22;8661;45.700;4.880;2022-09-09T13:07:17;34.30;50.90
17092;DHT22;8661;45.700;4.880;2022-09-09T13:09:46;34.70;50.60
17092;DHT22;8661;45.700;4.880;2022-09-09T13:12:16;33.70;50.30
17092;DHT22;8661;45.700;4.880;2022-09-09T13:14:46;32.90;51.30
17092;DHT22;8661;45.700;4.880;2022-09-09T13:17:20;32.80;52.30
17092;DHT22;8661;45.700;4.880;2022-09-09T13:19:48;33.40;50.10
17092;DHT22;8661;45.700;4.880;2022-09-09T13:22:28;33.70;50.90
17092;DHT22;8661;45.700;4.880;2022-09-09T13:25:04;33.60;50.20
17092;DHT22;8661;45.700;4.880;2022-09-09T13:27:33;33.60;51.30
17092;DHT22;8661;45.700;4.880;2022-09-09T13:30:00;33.70;51.30
17092;DHT22;8661;45.700;4.880;2022-09-09T13:32:28;34.10;49.70
17092;DHT22;8661;45.700;4.880;2022-09-09T13:34:58;34.40;50.10
17092;DHT22;8661;45.700;4.880;2022-09-09T13:37:32;34.10;50.20
17092;DHT22;8661;45.700;4.880;2022-09-09T13:40:01;33.70;48.60
17092;DHT22;8661;45.700;4.880;2022-09-09T13:42:30;32.90;50.00
17092;DHT22;8661;45.700;4.880;2022-09-09T13:44:58;32.20;51.00
17092;DHT22;8661;45.700;4.880;2022-09-09T13:47:31;31.80;51.40
17092;DHT22;8661;45.700;4.880;2022-09-09T13:50:13;31.40;51.20
17092;DHT22;8661;45.700;4.880;2022-09-09T13:52:45;31.00;52.50
17092;DHT22;8661;45.700;4.880;2022-09-09T13:55:13;30.90;53.20
17092;DHT22;8661;45.700;4.880;2022-09-09T13:57:50;31.00;53.50
17092;DHT22;8661;45.700;4.880;2022-09-09T14:00:17;31.10;53.70
17092;DHT22;8661;45.700;4.880;2022-09-09T14:02:45;31.70;52.60
17092;DHT22;8661;45.700;4.880;2022-09-09T14:05:11;32.40;53.50
17092;DHT22;8661;45.700;4.880;2022-09-09T14:07:39;32.60;52.00
17092;DHT22;8661;45.700;4.880;2022-09-09T14:10:09;32.40;52.70
17092;DHT22;8661;45.700;4.880;2022-09-09T14:12:36;32.30;52.20
17092;DHT22;8661;45.700;4.880;2022-09-09T14:15:05;31.70;52.30
17092;DHT22;8661;45.700;4.880;2022-09-09T14:17:32;31.00;52.90
17092;DHT22;8661;45.700;4.880;2022-09-09T14:20:02;30.90;52.60
17092;DHT22;8661;45.700;4.880;2022-09-09T14:22:29;31.30;54.80
17092;DHT22;8661;45.700;4.880;2022-09-09T14:24:56;32.10;53.90
17092;DHT22;8661;45.700;4.880;2022-09-09T14:27:24;32.40;53.10
17092;DHT22;8661;45.700;4.880;2022-09-09T14:29:52;32.80;53.30
17092;DHT22;8661;45.700;4.880;2022-09-09T14:32:20;33.50;54.70
17092;DHT22;8661;45.700;4.880;2022-09-09T14:34:47;34.20;53.50
17092;DHT22;8661;45.700;4.880;2022-09-09T14:37:15;34.80;53.20
17092;DHT22;8661;45.700;4.880;2022-09-09T14:39:42;34.80;51.00
17092;DHT22;8661;45.700;4.880;2022-09-09T14:42:10;34.80;50.60
17092;DHT22;8661;45.700;4.880;2022-09-09T14:44:39;34.30;50.80
17092;DHT22;8661;45.700;4.880;2022-09-09T14:47:06;33.40;51.40
17092;DHT22;8661;45.700;4.880;2022-09-09T14:49:33;32.90;52.40
17092;DHT22;8661;45.700;4.880;2022-09-09T14:52:01;32.40;53.00
17092;DHT22;8661;45.700;4.880;2022-09-09T14:54:28;31.70;53.30
17092;DHT22;8661;45.700;4.880;2022-09-09T14:56:55;31.40;55.40
17092;DHT22;8661;45.700;4.880;2022-09-09T14:59:22;31.00;54.70
17092;DHT22;8661;45.700;4.880;2022-09-09T15:01:51;30.90;53.60
17092;DHT22;8661;45.700;4.880;2022-09-09T15:04:18;30.60;54.00
17092;DHT22;8661;45.700;4.880;2022-09-09T15:06:46;30.30;54.00
17092;DHT22;8661;45.700;4.880;2022-09-09T15:09:13;30.00;54.60
17092;DHT22;8661;45.700;4.880;2022-09-09T15:11:41;29.70;55.30
17092;DHT22;8661;45.700;4.880;2022-09-09T15:14:09;29.60;54.40
17092;DHT22;8661;45.700;4.880;2022-09-09T15:16:38;29.50;54.90
17092;DHT22;8661;45.700;4.880;2022-09-09T15:19:07;29.30;55.80
17092;DHT22;8661;45.700;4.880;2022-09-09T15:21:35;29.30;57.30
17092;DHT22;8661;45.700;4.880;2022-09-09T15:24:04;29.20;57.10
17092;DHT22;8661;45.700;4.880;2022-09-09T15:26:34;29.10;57.40
17092;DHT22;8661;45.700;4.880;2022-09-09T15:29:04;28.90;58.20
17092;DHT22;8661;45.700;4.880;2022-09-09T15:31:31;28.90;58.50
17092;DHT22;8661;45.700;4.880;2022-09-09T15:34:00;28.90;58.20
17092;DHT22;8661;45.700;4.880;2022-09-09T15:36:30;28.90;57.30
17092;DHT22;8661;45.700;4.880;2022-09-09T15:38:58;29.10;57.40
17092;DHT22;8661;45.700;4.880;2022-09-09T15:41:25;29.00;56.80
17092;DHT22;8661;45.700;4.880;2022-09-09T15:43:53;29.20;56.70
17092;DHT22;8661;45.700;4.880;2022-09-09T15:46:25;29.10;57.60
17092;DHT22;8661;45.700;4.880;2022-09-09T15:48:53;28.80;57.70
17092;DHT22;8661;45.700;4.880;2022-09-09T15:51:22;28.60;57.60
17092;DHT22;8661;45.700;4.880;2022-09-09T15:53:53;28.20;58.40
17092;DHT22;8661;45.700;4.880;2022-09-09T15:56:20;28.00;60.00
17092;DHT22;8661;45.700;4.880;2022-09-09T15:58:47;28.00;60.10
17092;DHT22;8661;45.700;4.880;2022-09-09T16:01:15;27.90;59.50
17092;DHT22;8661;45.700;4.880;2022-09-09T16:03:42;27.80;60.10
17092;DHT22;8661;45.700;4.880;2022-09-09T16:06:12;27.70;62.00
17092;DHT22;8661;45.700;4.880;2022-09-09T16:08:41;27.40;61.00
17092;DHT22;8661;45.700;4.880;2022-09-09T16:11:11;27.30;61.00
17092;DHT22;8661;45.700;4.880;2022-09-09T16:13:40;27.10;61.40
17092;DHT22;8661;45.700;4.880;2022-09-09T16:16:09;27.00;63.20